createdAt,value
2022-08-20T00:01:06.763Z,8.57
2022-08-20T00:03:37.872Z,7.93
2022-08-20T00:06:08.361Z,7.70
2022-08-20T00:08:39.995Z,7.87
2022-08-20T00:11:12.282Z,8.50
2022-08-20T00:13:44.131Z,8.43
2022-08-20T00:16:12.576Z,8.00
2022-08-20T00:18:41.304Z,8.03
2022-08-20T00:21:11.981Z,8.50
2022-08-20T00:23:48.020Z,8.07
2022-08-20T00:26:17.245Z,8.27
2022-08-20T00:28:44.597Z,8.00
2022-08-20T00:31:15.185Z,7.87
2022-08-20T00:33:42.600Z,9.13
2022-08-20T00:36:10.929Z,9.47
2022-08-20T00:38:43.339Z,8.60
2022-08-20T00:41:18.136Z,8.47
2022-08-20T00:44:13.907Z,8.17
2022-08-20T00:46:42.155Z,8.27
2022-08-20T00:49:14.957Z,8.37
2022-08-20T00:51:45.865Z,8.90
2022-08-20T00:54:19.000Z,9.30
2022-08-20T00:56:49.728Z,7.83
2022-08-20T00:59:23.082Z,9.07
2022-08-20T01:01:52.680Z,8.50
2022-08-20T01:04:31.447Z,8.03
2022-08-20T01:07:00.256Z,8.30
2022-08-20T01:09:50.036Z,8.33
2022-08-20T01:12:17.260Z,8.33
2022-08-20T01:14:46.927Z,8.23
2022-08-20T01:17:20.229Z,8.63
2022-08-20T01:20:02.421Z,8.57
2022-08-20T01:23:12.663Z,8.43
2022-08-20T01:25:50.688Z,8.40
2022-08-20T01:28:28.361Z,8.17
2022-08-20T01:30:55.574Z,8.60
2022-08-20T01:33:24.190Z,8.33
2022-08-20T01:35:52.472Z,8.60
2022-08-20T01:38:21.329Z,8.73
2022-08-20T01:40:57.602Z,8.47
2022-08-20T01:43:25.007Z,8.80
2022-08-20T01:45:55.797Z,9.20
2022-08-20T01:48:23.187Z,8.80
2022-08-20T01:51:02.441Z,8.67
2022-08-20T01:53:35.696Z,9.63
2022-08-20T01:56:04.378Z,8.60
2022-08-20T01:58:33.685Z,9.00
2022-08-20T02:01:01.106Z,10.00
2022-08-20T02:03:28.480Z,9.70
2022-08-20T02:05:56.222Z,9.47
2022-08-20T02:08:23.378Z,9.80
2022-08-20T02:10:51.641Z,11.00
2022-08-20T02:13:18.994Z,10.60
2022-08-20T02:16:06.312Z,10.03
2022-08-20T02:18:33.304Z,9.20
2022-08-20T02:21:00.605Z,10.07
2022-08-20T02:23:27.640Z,10.30
2022-08-20T02:25:56.151Z,10.20
2022-08-20T02:28:23.462Z,9.43
2022-08-20T02:30:53.868Z,9.53
2022-08-20T02:33:24.073Z,9.10
2022-08-20T02:35:56.036Z,9.30
2022-08-20T02:38:23.383Z,10.27
2022-08-20T02:40:50.840Z,10.47
2022-08-20T02:43:20.245Z,9.80
2022-08-20T02:45:47.407Z,10.57
2022-08-20T02:48:21.068Z,10.47
2022-08-20T02:51:01.951Z,9.93
2022-08-20T02:53:31.587Z,9.40
2022-08-20T02:55:59.932Z,9.67
2022-08-20T02:58:27.661Z,10.03
2022-08-20T03:00:56.832Z,9.93
2022-08-20T03:03:25.270Z,9.83
2022-08-20T03:05:57.002Z,10.20
2022-08-20T03:08:25.040Z,9.40
2022-08-20T03:10:52.991Z,10.50
2022-08-20T03:13:22.013Z,9.93
2022-08-20T03:15:58.448Z,10.43
2022-08-20T03:18:30.688Z,9.70
2022-08-20T03:20:59.043Z,10.03
2022-08-20T03:23:26.728Z,10.03
2022-08-20T03:25:53.647Z,9.70
2022-08-20T03:28:21.556Z,10.63
2022-08-20T03:30:52.090Z,10.43
2022-08-20T03:33:20.452Z,9.47
2022-08-20T03:35:49.398Z,10.13
2022-08-20T03:38:17.937Z,9.43
2022-08-20T03:40:48.828Z,10.40
2022-08-20T03:43:17.468Z,9.20
2022-08-20T03:45:46.318Z,9.97
2022-08-20T03:48:16.798Z,9.83
2022-08-20T03:50:44.761Z,10.43
2022-08-20T03:53:14.817Z,8.63
2022-08-20T03:55:45.586Z,9.97
2022-08-20T03:58:20.994Z,9.70
2022-08-20T04:00:51.094Z,8.93
2022-08-20T04:03:18.423Z,10.40
2022-08-20T04:05:46.178Z,10.90
2022-08-20T04:08:20.468Z,10.23
2022-08-20T04:10:49.991Z,9.37
2022-08-20T04:13:20.255Z,10.30
2022-08-20T04:15:55.250Z,9.83
2022-08-20T04:18:25.805Z,9.63
2022-08-20T04:20:54.089Z,10.47
2022-08-20T04:23:22.315Z,10.53
2022-08-20T04:25:50.544Z,10.10
2022-08-20T04:28:30.167Z,10.30
2022-08-20T04:30:59.560Z,9.37
2022-08-20T04:33:35.336Z,9.70
2022-08-20T04:36:06.070Z,10.13
2022-08-20T04:38:50.226Z,9.00
2022-08-20T04:41:22.853Z,9.60
2022-08-20T04:43:54.189Z,10.30
2022-08-20T04:46:26.113Z,10.73
2022-08-20T04:48:53.673Z,10.50
2022-08-20T04:51:23.165Z,10.47
2022-08-20T04:53:54.066Z,10.63
2022-08-20T04:56:24.049Z,9.60
2022-08-20T04:58:55.542Z,10.57
2022-08-20T05:01:26.301Z,11.00
2022-08-20T05:03:55.202Z,10.70
2022-08-20T05:06:26.437Z,9.97
2022-08-20T05:08:55.983Z,10.13
2022-08-20T05:11:34.365Z,10.90
2022-08-20T05:14:09.827Z,10.90
2022-08-20T05:16:58.080Z,11.33
2022-08-20T05:19:25.476Z,11.70
2022-08-20T05:21:53.743Z,10.30
2022-08-20T05:24:24.320Z,10.67
2022-08-20T05:26:55.549Z,11.60
2022-08-20T05:29:27.691Z,10.00
2022-08-20T05:31:57.569Z,10.80
2022-08-20T05:34:26.458Z,10.33
2022-08-20T05:36:54.069Z,10.03
2022-08-20T05:39:23.410Z,10.67
2022-08-20T05:41:52.173Z,10.10
2022-08-20T05:44:19.956Z,9.70
2022-08-20T05:46:49.575Z,9.53
2022-08-20T05:49:21.890Z,9.47
2022-08-20T05:51:52.428Z,10.23
2022-08-20T05:54:21.656Z,9.87
2022-08-20T05:56:48.839Z,9.47
2022-08-20T05:59:23.559Z,9.10
2022-08-20T06:01:53.306Z,9.50
2022-08-20T06:04:25.111Z,9.83
2022-08-20T06:07:12.809Z,10.87
2022-08-20T06:09:44.258Z,9.53
2022-08-20T06:12:11.820Z,9.73
2022-08-20T06:14:42.401Z,9.53
2022-08-20T06:17:15.335Z,9.70
2022-08-20T06:19:44.684Z,9.17
2022-08-20T06:22:18.997Z,9.90
2022-08-20T06:24:50.212Z,9.83
2022-08-20T06:27:19.878Z,10.27
2022-08-20T06:29:48.959Z,9.23
2022-08-20T06:32:28.876Z,10.33
2022-08-20T06:35:05.953Z,10.10
2022-08-20T06:37:39.375Z,11.63
2022-08-20T06:40:10.570Z,12.63
2022-08-20T06:42:48.269Z,10.63
2022-08-20T06:45:24.737Z,14.13
2022-08-20T06:47:55.132Z,14.80
2022-08-20T06:50:29.703Z,9.17
2022-08-20T06:53:00.384Z,14.47
2022-08-20T06:55:29.170Z,12.57
2022-08-20T06:58:01.873Z,12.13
2022-08-20T07:00:34.358Z,10.50
2022-08-20T07:03:05.449Z,10.97
2022-08-20T07:05:36.706Z,10.50
2022-08-20T07:08:05.601Z,10.40
2022-08-20T07:10:36.576Z,10.47
2022-08-20T07:13:06.341Z,9.60
2022-08-20T07:15:36.886Z,10.97
2022-08-20T07:18:07.481Z,10.83
2022-08-20T07:20:37.362Z,10.03
2022-08-20T07:23:12.432Z,11.20
2022-08-20T07:25:45.088Z,10.07
2022-08-20T07:28:20.032Z,11.17
2022-08-20T07:31:13.364Z,9.00
2022-08-20T07:33:44.806Z,10.73
2022-08-20T07:36:15.146Z,9.87
2022-08-20T07:38:46.263Z,9.70
2022-08-20T07:41:15.687Z,10.90
2022-08-20T07:43:50.183Z,8.90
2022-08-20T07:46:22.326Z,8.73
2022-08-20T07:48:51.537Z,9.03
2022-08-20T07:51:22.838Z,8.67
2022-08-20T07:53:53.442Z,8.33
2022-08-20T07:56:25.346Z,7.90
2022-08-20T07:58:55.839Z,7.53
2022-08-20T08:01:26.771Z,8.67
2022-08-20T08:03:59.049Z,9.43
2022-08-20T08:06:48.963Z,9.70
2022-08-20T08:09:17.687Z,8.45
2022-08-20T08:11:52.865Z,10.90
2022-08-20T08:14:27.859Z,8.70
2022-08-20T08:17:06.725Z,7.55
2022-08-20T08:19:43.638Z,7.50
2022-08-20T08:22:15.670Z,7.68
2022-08-20T08:24:57.289Z,7.30
2022-08-20T08:27:25.748Z,7.15
2022-08-20T08:29:56.253Z,7.88
2022-08-20T08:32:25.161Z,7.20
2022-08-20T08:34:54.756Z,7.60
2022-08-20T08:37:23.158Z,7.40
2022-08-20T08:39:52.855Z,7.80
2022-08-20T08:42:45.249Z,6.88
2022-08-20T08:45:20.088Z,7.70
2022-08-20T08:47:49.019Z,7.50
2022-08-20T08:50:53.996Z,6.97
2022-08-20T08:53:28.575Z,6.93
2022-08-20T08:55:55.990Z,8.68
2022-08-20T08:58:24.976Z,7.50
2022-08-20T09:00:57.532Z,7.35
2022-08-20T09:03:35.677Z,7.05
2022-08-20T09:06:05.220Z,8.32
2022-08-20T09:08:49.348Z,7.75
2022-08-20T09:11:19.342Z,7.60
2022-08-20T09:13:47.559Z,7.72
2022-08-20T09:16:18.472Z,8.05
2022-08-20T09:18:46.425Z,8.20
2022-08-20T09:21:15.885Z,7.63
2022-08-20T09:23:44.240Z,9.30
2022-08-20T09:26:13.655Z,7.82
2022-08-20T09:28:41.638Z,7.63
2022-08-20T09:31:18.766Z,8.05
2022-08-20T09:33:48.815Z,8.85
2022-08-20T09:36:31.357Z,6.35
2022-08-20T09:38:59.717Z,7.20
2022-08-20T09:41:28.071Z,7.10
2022-08-20T09:43:57.422Z,7.30
2022-08-20T09:46:27.305Z,8.55
2022-08-20T09:48:56.673Z,7.43
2022-08-20T09:51:23.825Z,9.18
2022-08-20T09:53:53.687Z,8.68
2022-08-20T09:56:22.620Z,8.45
2022-08-20T09:59:01.057Z,8.75
2022-08-20T10:01:30.058Z,7.65
2022-08-20T10:03:59.390Z,8.38
2022-08-20T10:06:34.517Z,8.93
2022-08-20T10:09:04.957Z,9.13
2022-08-20T10:11:32.548Z,7.45
2022-08-20T10:13:59.741Z,9.15
2022-08-20T10:16:27.093Z,7.75
2022-08-20T10:18:55.323Z,7.55
2022-08-20T10:21:22.690Z,7.47
2022-08-20T10:23:52.570Z,7.03
2022-08-20T10:26:21.820Z,7.93
2022-08-20T10:28:48.984Z,8.25
2022-08-20T10:31:16.408Z,8.68
2022-08-20T10:33:54.379Z,8.00
2022-08-20T10:36:21.759Z,8.25
2022-08-20T10:38:50.522Z,8.70
2022-08-20T10:41:18.721Z,7.57
2022-08-20T10:43:47.459Z,8.55
2022-08-20T10:46:16.849Z,8.63
2022-08-20T10:48:44.534Z,8.18
2022-08-20T10:51:12.403Z,7.30
2022-08-20T10:53:41.358Z,8.13
2022-08-20T10:56:10.886Z,7.00
2022-08-20T10:58:43.820Z,8.27
2022-08-20T11:01:31.647Z,6.57
2022-08-20T11:04:01.162Z,7.60
2022-08-20T11:06:29.585Z,7.15
2022-08-20T11:08:57.300Z,7.53
2022-08-20T11:11:25.277Z,7.72
2022-08-20T11:13:52.428Z,7.70
2022-08-20T11:16:21.230Z,7.32
2022-08-20T11:18:54.197Z,7.45
2022-08-20T11:21:21.282Z,7.38
2022-08-20T11:23:48.250Z,9.35
2022-08-20T11:26:25.421Z,10.35
2022-08-20T11:28:52.917Z,7.72
2022-08-20T11:31:20.083Z,7.90
2022-08-20T11:33:47.165Z,8.30
2022-08-20T11:36:14.231Z,8.13
2022-08-20T11:38:41.426Z,8.02
2022-08-20T11:41:08.568Z,7.43
2022-08-20T11:43:37.938Z,7.45
2022-08-20T11:46:06.341Z,8.15
2022-08-20T11:48:33.731Z,7.80
2022-08-20T11:51:01.706Z,8.63
2022-08-20T11:53:31.017Z,7.97
2022-08-20T11:56:01.084Z,8.00
2022-08-20T11:58:29.128Z,7.88
2022-08-20T12:00:56.523Z,9.80
2022-08-20T12:03:30.875Z,7.95
2022-08-20T12:06:00.734Z,7.20
2022-08-20T12:08:29.450Z,8.25
2022-08-20T12:11:01.875Z,7.60
2022-08-20T12:13:47.368Z,8.10
2022-08-20T12:16:20.511Z,8.80
2022-08-20T12:18:48.305Z,7.63
2022-08-20T12:21:17.909Z,7.95
2022-08-20T12:23:46.878Z,8.52
2022-08-20T12:26:17.547Z,8.15
2022-08-20T12:28:45.259Z,8.65
2022-08-20T12:31:12.242Z,7.65
2022-08-20T12:33:40.760Z,8.50
2022-08-20T12:36:08.933Z,8.80
2022-08-20T12:38:36.424Z,8.85
2022-08-20T12:41:03.769Z,8.05
2022-08-20T12:43:32.461Z,8.82
2022-08-20T12:46:00.840Z,8.35
2022-08-20T12:48:28.988Z,8.15
2022-08-20T12:50:56.391Z,8.40
2022-08-20T12:53:23.480Z,8.65
2022-08-20T12:55:54.139Z,8.45
2022-08-20T12:58:21.175Z,7.93
2022-08-20T13:00:50.677Z,8.50
2022-08-20T13:03:19.155Z,8.13
2022-08-20T13:05:46.203Z,8.48
2022-08-20T13:08:13.789Z,8.05
2022-08-20T13:10:45.342Z,8.07
2022-08-20T13:13:14.565Z,7.90
2022-08-20T13:15:43.069Z,7.10
2022-08-20T13:18:10.099Z,8.30
2022-08-20T13:20:46.849Z,8.68
2022-08-20T13:23:17.470Z,8.35
2022-08-20T13:25:44.395Z,8.90
2022-08-20T13:28:12.400Z,7.95
2022-08-20T13:30:43.239Z,8.20
2022-08-20T13:33:10.722Z,8.35
2022-08-20T13:35:38.958Z,8.43
2022-08-20T13:38:05.970Z,8.35
2022-08-20T13:40:33.093Z,8.57
2022-08-20T13:43:05.982Z,8.90
2022-08-20T13:45:38.137Z,8.60
2022-08-20T13:48:15.502Z,9.10
2022-08-20T13:50:46.971Z,8.65
2022-08-20T13:53:14.861Z,8.15
2022-08-20T13:55:41.775Z,7.60
2022-08-20T13:58:08.856Z,8.57
2022-08-20T14:00:36.663Z,7.90
2022-08-20T14:03:06.253Z,8.98
2022-08-20T14:05:35.980Z,8.65
2022-08-20T14:08:20.858Z,9.02
2022-08-20T14:10:51.605Z,9.27
2022-08-20T14:13:22.813Z,8.38
2022-08-20T14:15:50.564Z,8.65
2022-08-20T14:18:17.873Z,8.88
2022-08-20T14:20:45.887Z,8.50
2022-08-20T14:23:15.590Z,8.90
2022-08-20T14:25:47.416Z,9.15
2022-08-20T14:28:19.332Z,8.75
2022-08-20T14:30:52.691Z,8.52
2022-08-20T14:33:24.973Z,15.13
2022-08-20T14:35:52.705Z,8.93
2022-08-20T14:38:20.407Z,9.38
2022-08-20T14:40:49.669Z,8.75
2022-08-20T14:43:22.530Z,8.80
2022-08-20T14:45:49.544Z,10.10
2022-08-20T14:48:17.228Z,9.73
2022-08-20T14:50:44.536Z,8.27
2022-08-20T14:53:19.671Z,9.18
2022-08-20T17:42:56.989Z,13.97
2022-08-20T17:45:30.851Z,11.20
2022-08-20T17:48:01.085Z,10.90
2022-08-20T17:50:38.539Z,11.07
2022-08-20T17:53:17.842Z,9.97
2022-08-20T17:55:52.530Z,11.30
2022-08-20T17:58:26.987Z,10.00
2022-08-20T18:00:56.360Z,8.97
2022-08-20T18:03:29.270Z,7.63
2022-08-20T18:06:30.453Z,9.10
2022-08-20T18:09:14.817Z,7.87
2022-08-20T18:11:57.235Z,6.83
2022-08-20T18:14:38.297Z,6.07
